createdAt,value
2024-04-05T00:02:00.193Z,13.6
2024-04-05T00:07:03.759Z,13.6
2024-04-05T00:12:08.297Z,13.4
2024-04-05T00:17:12.805Z,13.4
2024-04-05T00:22:17.370Z,13.4
2024-04-05T00:27:20.888Z,13.4
2024-04-05T00:37:29.953Z,13.4
2024-04-05T00:42:33.545Z,13.5
2024-04-05T00:47:38.091Z,13.4
2024-04-05T00:52:42.574Z,13.4
2024-04-05T00:57:46.126Z,13.6
2024-04-05T01:02:50.672Z,13.8
2024-04-05T01:07:55.220Z,13.7
2024-04-05T01:12:58.739Z,14
2024-04-05T01:18:03.297Z,13.9
2024-04-05T01:23:07.818Z,14
2024-04-05T01:28:12.399Z,14
2024-04-05T01:33:15.928Z,13.8
2024-04-05T01:38:20.424Z,13.5
2024-04-05T01:43:24.979Z,13.5
2024-04-05T01:48:28.507Z,13.7
2024-04-05T01:53:33.040Z,13.9
2024-04-05T01:58:37.615Z,13.9
2024-04-05T02:03:41.193Z,14
2024-04-05T02:08:45.714Z,14.1
2024-04-05T02:13:50.229Z,14.1
2024-04-05T02:18:53.796Z,13.8
2024-04-05T02:23:58.307Z,14
2024-04-05T02:29:02.852Z,13.8
2024-04-05T02:34:07.394Z,13.7
2024-04-05T02:39:10.914Z,13.6
2024-04-05T02:44:15.487Z,13.5
2024-04-05T02:49:20.006Z,13.5
2024-04-05T02:54:23.607Z,13.5
2024-04-05T02:59:28.085Z,13.5
2024-04-05T03:04:32.629Z,13.5
2024-04-05T03:09:36.169Z,13.7
2024-04-05T03:14:40.677Z,13.8
2024-04-05T03:19:45.259Z,13.8
2024-04-05T03:29:53.346Z,13.8
2024-04-05T03:34:57.866Z,13.9
2024-04-05T03:50:10.493Z,13.9
2024-04-05T03:55:14.981Z,14.1
2024-04-05T04:00:18.576Z,14.2
2024-04-05T04:05:23.111Z,14.3
2024-04-05T04:10:27.656Z,14.2
2024-04-05T04:15:31.170Z,14.3
2024-04-05T04:20:35.711Z,14.1
2024-04-05T04:25:39.257Z,14
2024-04-05T04:30:43.822Z,14
2024-04-05T04:35:48.337Z,13.9
2024-04-05T04:40:51.890Z,13.9
2024-04-05T04:45:56.392Z,13.9
2024-04-05T04:51:00.927Z,14
2024-04-05T04:56:04.514Z,14
2024-04-05T05:01:09.032Z,14
2024-04-05T05:06:13.582Z,13.9
2024-04-05T05:11:17.105Z,14.1
2024-04-05T05:16:21.626Z,14.1
2024-04-05T05:21:26.153Z,14.1
2024-04-05T05:26:30.676Z,14
2024-04-05T05:31:34.243Z,14.2
2024-04-05T05:36:38.765Z,14.2
2024-04-05T05:41:43.303Z,14
2024-04-05T05:46:46.892Z,14
2024-04-05T05:51:51.392Z,14.1
2024-04-05T06:12:08.555Z,14.2
2024-04-05T06:22:16.646Z,14.3
2024-04-05T06:27:21.178Z,14.5
2024-04-05T06:32:25.729Z,14.5
2024-04-05T06:37:29.253Z,14.8
2024-04-05T06:42:33.803Z,14.7
2024-04-05T06:47:38.290Z,14.9
2024-04-05T06:52:41.869Z,15
2024-04-05T06:57:46.685Z,14.8
2024-04-05T07:02:50.923Z,15
2024-04-05T07:07:54.521Z,15.1
2024-04-05T07:12:59.029Z,15.6
2024-04-05T07:18:03.571Z,15.7
2024-04-05T07:23:07.120Z,15.8
2024-04-05T07:28:11.634Z,15.6
2024-04-05T07:33:16.207Z,15.8
2024-04-05T07:38:20.695Z,15.6
2024-04-05T07:43:24.239Z,16.1
2024-04-05T07:48:28.766Z,15.9
2024-04-05T07:58:36.867Z,16.1
2024-04-05T08:03:41.407Z,16.4
2024-04-05T08:08:45.963Z,16.6
2024-04-05T08:13:49.518Z,16.8
2024-04-05T08:18:55.869Z,16.8
2024-04-05T08:23:58.587Z,17.1
2024-04-05T08:29:02.129Z,16.9
2024-04-05T08:34:06.675Z,17
2024-04-05T08:39:10.210Z,17
2024-04-05T08:44:14.755Z,17.1
2024-04-05T08:49:19.258Z,17
2024-04-05T08:54:22.799Z,17.4
2024-04-05T08:59:27.333Z,17.4
2024-04-05T09:04:31.867Z,17.9
2024-04-05T09:09:39.852Z,18.4
2024-04-05T09:14:39.995Z,18
2024-04-05T09:19:44.515Z,18.1
2024-04-05T09:24:49.051Z,17.7
2024-04-05T09:29:52.604Z,18.2
2024-04-05T09:34:57.184Z,18.4
2024-04-05T09:40:01.687Z,18.5
2024-04-05T09:45:05.185Z,18.5
2024-04-05T09:50:09.736Z,18.3
2024-04-05T09:55:14.258Z,18.1
2024-04-05T10:00:17.830Z,18.4
2024-04-05T10:05:22.380Z,18.4
2024-04-05T10:10:26.894Z,19
2024-04-05T10:15:30.425Z,19.1
2024-04-05T10:20:34.990Z,19
2024-04-05T10:25:39.532Z,19.1
2024-04-05T10:30:44.033Z,18.8
2024-04-05T10:35:47.582Z,18.9
2024-04-05T10:40:52.144Z,18.7
2024-04-05T10:45:56.639Z,18.9
2024-04-05T10:51:00.225Z,19
2024-04-05T10:56:04.742Z,19
2024-04-05T11:06:12.811Z,19.1
2024-04-05T11:11:17.382Z,19.2
2024-04-05T11:16:21.862Z,19.2
2024-04-05T11:21:25.433Z,19.2
2024-04-05T11:26:29.985Z,19.4
2024-04-05T11:31:36.414Z,19.8
2024-04-05T11:36:39.030Z,19.6
2024-04-05T11:41:42.603Z,19.6
2024-04-05T11:46:47.095Z,19.8
2024-04-05T11:51:51.665Z,20
2024-04-05T11:56:55.179Z,19.9
2024-04-05T12:12:07.825Z,19.8
2024-04-05T12:17:12.357Z,20
2024-04-05T12:22:16.902Z,19.9
2024-04-05T12:27:20.445Z,20.3
2024-04-05T12:32:24.997Z,20.5
2024-04-05T12:37:29.520Z,20.3
2024-04-05T12:42:34.083Z,20.3
2024-04-05T12:47:37.595Z,20.4
2024-04-05T12:52:41.124Z,20.1
2024-04-05T12:57:45.681Z,20.5
2024-04-05T13:02:50.188Z,20.2
2024-04-05T13:07:53.767Z,20.3
2024-04-05T13:12:58.269Z,20
2024-04-05T13:18:02.822Z,20.7
2024-04-05T13:23:07.433Z,20.7
2024-04-05T13:28:10.881Z,20.3
2024-04-05T13:33:15.458Z,20.4
2024-04-05T13:38:21.185Z,20.7
2024-04-05T13:43:23.508Z,20.6
2024-04-05T13:48:28.027Z,20.6
2024-04-05T13:53:32.604Z,20.2
2024-04-05T13:58:36.137Z,20.1
2024-04-05T14:03:40.875Z,20.6
2024-04-05T14:08:45.188Z,20.7
2024-04-05T14:13:48.774Z,20.7
2024-04-05T14:18:53.310Z,20.5
2024-04-05T14:23:57.829Z,20.6
2024-04-05T14:29:02.374Z,20.6
2024-04-05T14:34:05.930Z,20.7
2024-04-05T14:39:10.414Z,20.5
2024-04-05T14:44:14.963Z,20.3
2024-04-05T14:49:18.538Z,20.2
2024-04-05T14:54:23.078Z,20.5
2024-04-05T14:59:27.610Z,20.4
2024-04-05T15:04:31.119Z,20.1
2024-04-05T15:09:35.688Z,19.9
2024-04-05T15:19:43.779Z,19.7
2024-04-05T15:24:48.290Z,19.6
2024-04-05T15:29:52.843Z,19.7
2024-04-05T15:34:57.364Z,19.8
2024-04-05T15:40:00.899Z,19.8
2024-04-05T15:45:05.459Z,19.8
2024-04-05T15:50:10.023Z,19.7
2024-04-05T15:55:13.548Z,20
2024-04-05T16:00:18.080Z,20.4
2024-04-05T16:05:23.617Z,19.9
2024-04-05T16:10:26.151Z,20
2024-04-05T16:15:30.657Z,20.3
2024-04-05T16:25:38.729Z,20.1
2024-04-05T16:30:43.282Z,20.2
2024-04-05T16:35:47.846Z,20.3
2024-04-05T16:40:52.374Z,20.3
2024-04-05T16:45:55.915Z,20
2024-04-05T16:51:00.426Z,20
2024-04-05T16:56:05.022Z,20
2024-04-05T17:01:08.512Z,20
2024-04-05T17:06:12.093Z,20
2024-04-05T17:11:16.652Z,20
2024-04-05T17:16:21.162Z,19.9
2024-04-05T17:21:25.708Z,19.9
2024-04-05T17:31:33.746Z,20
2024-04-05T17:46:46.366Z,19.6
2024-04-05T17:56:54.479Z,19.6
2024-04-05T18:01:58.971Z,19.4
2024-04-05T18:07:03.506Z,19.5
2024-04-05T18:12:07.091Z,19.8
2024-04-05T18:17:11.592Z,19.5
2024-04-05T18:22:16.172Z,19.5
2024-04-05T18:27:20.654Z,19.4
2024-04-05T18:32:24.224Z,19.2
2024-04-05T18:37:28.743Z,19.1
2024-04-05T18:42:33.284Z,19.1
2024-04-05T18:47:36.843Z,18.9
2024-04-05T18:52:41.339Z,18.8
2024-04-05T18:57:45.885Z,19
2024-04-05T19:02:49.460Z,18.8
2024-04-05T19:07:54.013Z,18.8
2024-04-05T19:12:58.518Z,19.1
2024-04-05T19:18:03.068Z,19.1
2024-04-05T19:23:06.600Z,19
2024-04-05T19:28:11.139Z,19
2024-04-05T19:33:15.676Z,18.7
2024-04-05T19:38:19.292Z,18.6
2024-04-05T19:43:23.780Z,19
2024-04-05T19:48:28.278Z,18.8
2024-04-05T19:53:31.833Z,18.8
2024-04-05T19:58:36.387Z,18.8
2024-04-05T20:03:40.904Z,18.8
2024-04-05T20:08:44.497Z,18.5
2024-04-05T20:13:49.009Z,18.7
2024-04-05T20:18:53.647Z,18.7
2024-04-05T20:24:08.761Z,18.7
2024-04-05T20:29:01.615Z,18.8
2024-04-05T20:34:06.134Z,18.8
2024-04-05T20:39:10.705Z,18.7
2024-04-05T20:49:18.893Z,18.9
2024-04-05T20:54:23.322Z,18.5
2024-04-05T20:59:26.836Z,18.7
2024-04-05T21:04:31.422Z,18.9
2024-04-05T21:09:35.905Z,18.5
2024-04-05T21:14:39.448Z,18.5
2024-04-05T21:19:48.033Z,18.6
2024-04-05T21:24:47.601Z,18.4
2024-04-05T21:29:52.091Z,18.6
2024-04-05T21:34:56.652Z,18.7
2024-04-05T21:40:00.201Z,18.3
2024-04-05T21:50:09.270Z,18.5
2024-04-05T21:55:12.787Z,18.2
2024-04-05T22:00:17.316Z,17.9
2024-04-05T22:05:21.945Z,17.9
2024-04-05T22:10:25.432Z,18
2024-04-05T22:15:29.958Z,18
2024-04-05T22:25:39.022Z,18.1
2024-04-05T22:30:42.584Z,18.4
2024-04-05T22:35:47.130Z,18.7
2024-04-05T22:40:51.643Z,18.7
2024-04-05T22:45:55.188Z,18.4
2024-04-05T22:56:04.235Z,17.9
2024-04-05T23:01:07.850Z,17.9
2024-04-05T23:06:12.358Z,18
2024-04-05T23:11:16.904Z,17.8
2024-04-05T23:16:20.403Z,17.7
2024-04-05T23:21:24.946Z,17.6
2024-04-05T23:26:29.463Z,17.3
2024-04-05T23:31:34.015Z,17.2
2024-04-05T23:36:37.593Z,17.2
2024-04-05T23:41:42.097Z,17.4
2024-04-05T23:46:46.642Z,17.3
2024-04-05T23:51:50.202Z,17
2024-04-05T23:56:54.884Z,17.2
